sensor_id;sensor_type;location;lat;lon;timestamp;pressure;altitude;pressure_sealevel;temperature;humidity
22283;BME280;11310;51.528;21.204;2022-12-18T00:00:08;101311.97;;;-4.93;100.00
22283;BME280;11310;51.528;21.204;2022-12-18T00:02:41;101318.94;;;-4.89;100.00
22283;BME280;11310;51.528;21.204;2022-12-18T00:05:10;101319.97;;;-4.84;100.00
22283;BME280;11310;51.528;21.204;2022-12-18T00:07:39;101321.00;;;-4.79;100.00
22283;BME280;11310;51.528;21.204;2022-12-18T00:10:08;101312.63;;;-4.75;100.00
22283;BME280;11310;51.528;21.204;2022-12-18T00:12:36;101319.59;;;-4.71;100.00
22283;BME280;11310;51.528;21.204;2022-12-18T00:15:05;101320.56;;;-4.67;100.00
22283;BME280;11310;51.528;21.204;2022-12-18T00:17:33;101325.00;;;-4.63;100.00
22283;BME280;11310;51.528;21.204;2022-12-18T00:20:04;101331.91;;;-4.61;100.00
22283;BME280;11310;51.528;21.204;2022-12-18T00:22:32;101327.72;;;-4.59;100.00
22283;BME280;11310;51.528;21.204;2022-12-18T00:25:01;101329.56;;;-4.55;100.00
22283;BME280;11310;51.528;21.204;2022-12-18T00:27:29;101339.84;;;-4.53;100.00
22283;BME280;11310;51.528;21.204;2022-12-18T00:29:59;101345.97;;;-4.50;100.00
22283;BME280;11310;51.528;21.204;2022-12-18T00:32:32;101351.16;;;-4.48;100.00
22283;BME280;11310;51.528;21.204;2022-12-18T00:35:03;101350.38;;;-4.46;100.00
22283;BME280;11310;51.528;21.204;2022-12-18T00:37:33;101358.91;;;-4.45;100.00
22283;BME280;11310;51.528;21.204;2022-12-18T00:40:02;101355.59;;;-4.43;100.00
22283;BME280;11310;51.528;21.204;2022-12-18T00:42:31;101363.25;;;-4.43;100.00
22283;BME280;11310;51.528;21.204;2022-12-18T00:45:19;101368.50;;;-4.40;100.00
22283;BME280;11310;51.528;21.204;2022-12-18T00:47:48;101371.97;;;-4.38;100.00
22283;BME280;11310;51.528;21.204;2022-12-18T00:50:18;101377.22;;;-4.35;100.00
22283;BME280;11310;51.528;21.204;2022-12-18T00:52:46;101374.72;;;-4.33;100.00
22283;BME280;11310;51.528;21.204;2022-12-18T00:55:15;101385.00;;;-4.32;100.00
22283;BME280;11310;51.528;21.204;2022-12-18T00:57:46;101383.38;;;-4.30;100.00
22283;BME280;11310;51.528;21.204;2022-12-18T01:00:15;101385.94;;;-4.30;100.00
22283;BME280;11310;51.528;21.204;2022-12-18T01:02:43;101388.53;;;-4.28;100.00
22283;BME280;11310;51.528;21.204;2022-12-18T01:05:13;101396.28;;;-4.27;100.00
22283;BME280;11310;51.528;21.204;2022-12-18T01:07:44;101407.50;;;-4.23;100.00
22283;BME280;11310;51.528;21.204;2022-12-18T01:10:13;101405.81;;;-4.23;100.00
22283;BME280;11310;51.528;21.204;2022-12-18T01:12:42;101400.72;;;-4.21;100.00
22283;BME280;11310;51.528;21.204;2022-12-18T01:15:12;101404.22;;;-4.19;100.00
22283;BME280;11310;51.528;21.204;2022-12-18T01:17:40;101400.06;;;-4.16;100.00
22283;BME280;11310;51.528;21.204;2022-12-18T01:20:11;101416.47;;;-4.11;100.00
22283;BME280;11310;51.528;21.204;2022-12-18T01:22:39;101414.03;;;-4.08;100.00
22283;BME280;11310;51.528;21.204;2022-12-18T01:25:09;101421.00;;;-4.04;100.00
22283;BME280;11310;51.528;21.204;2022-12-18T01:27:38;101430.38;;;-4.04;100.00
22283;BME280;11310;51.528;21.204;2022-12-18T01:30:07;101423.56;;;-4.04;100.00
22283;BME280;11310;51.528;21.204;2022-12-18T01:32:37;101423.66;;;-4.01;100.00
22283;BME280;11310;51.528;21.204;2022-12-18T01:35:06;101422.09;;;-3.97;100.00
22283;BME280;11310;51.528;21.204;2022-12-18T01:37:35;101430.63;;;-3.97;100.00
22283;BME280;11310;51.528;21.204;2022-12-18T01:40:04;101432.41;;;-3.94;100.00
22283;BME280;11310;51.528;21.204;2022-12-18T01:42:34;101432.47;;;-3.93;100.00
22283;BME280;11310;51.528;21.204;2022-12-18T01:45:05;101440.28;;;-3.90;100.00
22283;BME280;11310;51.528;21.204;2022-12-18T01:47:38;101437.78;;;-3.88;100.00
22283;BME280;11310;51.528;21.204;2022-12-18T01:50:10;101433.41;;;-3.91;100.00
22283;BME280;11310;51.528;21.204;2022-12-18T01:52:42;101437.72;;;-3.90;100.00
22283;BME280;11310;51.528;21.204;2022-12-18T01:55:12;101450.41;;;-3.93;100.00
22283;BME280;11310;51.528;21.204;2022-12-18T01:57:44;101451.28;;;-3.92;100.00
22283;BME280;11310;51.528;21.204;2022-12-18T02:00:15;101450.53;;;-3.90;100.00
22283;BME280;11310;51.528;21.204;2022-12-18T02:02:45;101450.53;;;-3.90;100.00
22283;BME280;11310;51.528;21.204;2022-12-18T02:05:16;101448.88;;;-3.88;100.00
22283;BME280;11310;51.528;21.204;2022-12-18T02:07:56;101454.84;;;-3.89;100.00
22283;BME280;11310;51.528;21.204;2022-12-18T02:10:37;101455.75;;;-3.87;100.00
22283;BME280;11310;51.528;21.204;2022-12-18T02:13:13;101455.03;;;-3.83;100.00
22283;BME280;11310;51.528;21.204;2022-12-18T02:15:48;101459.38;;;-3.80;100.00
22283;BME280;11310;51.528;21.204;2022-12-18T02:18:24;101459.44;;;-3.79;100.00
22283;BME280;11310;51.528;21.204;2022-12-18T02:20:59;101457.13;;;-3.73;100.00
22283;BME280;11310;51.528;21.204;2022-12-18T02:23:44;101464.03;;;-3.70;100.00
22283;BME280;11310;51.528;21.204;2022-12-18T02:26:19;101464.06;;;-3.69;100.00
22283;BME280;11310;51.528;21.204;2022-12-18T02:28:54;101461.72;;;-3.63;100.00
22283;BME280;11310;51.528;21.204;2022-12-18T02:31:30;101465.25;;;-3.59;100.00
22283;BME280;11310;51.528;21.204;2022-12-18T02:34:02;101465.19;;;-3.61;100.00
22283;BME280;11310;51.528;21.204;2022-12-18T02:36:40;101471.28;;;-3.57;100.00
22283;BME280;11310;51.528;21.204;2022-12-18T02:39:11;101474.78;;;-3.55;100.00
22283;BME280;11310;51.528;21.204;2022-12-18T02:41:56;101480.78;;;-3.55;100.00
22283;BME280;11310;51.528;21.204;2022-12-18T02:44:25;101485.03;;;-3.55;100.00
22283;BME280;11310;51.528;21.204;2022-12-18T02:46:54;101491.09;;;-3.53;100.00
22283;BME280;11310;51.528;21.204;2022-12-18T02:49:31;101498.00;;;-3.51;100.00
22283;BME280;11310;51.528;21.204;2022-12-18T02:52:09;101491.25;;;-3.49;100.00
22283;BME280;11310;51.528;21.204;2022-12-18T02:54:51;101488.78;;;-3.46;100.00
22283;BME280;11310;51.528;21.204;2022-12-18T02:57:33;101494.84;;;-3.44;100.00
22283;BME280;11310;51.528;21.204;2022-12-18T03:00:07;101499.97;;;-3.44;100.00
22283;BME280;11310;51.528;21.204;2022-12-18T03:02:41;101505.94;;;-3.43;100.00
22283;BME280;11310;51.528;21.204;2022-12-18T03:05:15;101512.84;;;-3.42;100.00
22283;BME280;11310;51.528;21.204;2022-12-18T03:07:49;101518.06;;;-3.39;100.00
22283;BME280;11310;51.528;21.204;2022-12-18T03:10:25;101523.31;;;-3.36;100.00
22283;BME280;11310;51.528;21.204;2022-12-18T03:13:01;101531.91;;;-3.34;100.00
22283;BME280;11310;51.528;21.204;2022-12-18T03:15:34;101531.06;;;-3.35;100.00
22283;BME280;11310;51.528;21.204;2022-12-18T03:18:13;101540.53;;;-3.32;100.00
22283;BME280;11310;51.528;21.204;2022-12-18T03:20:44;101541.41;;;-3.32;100.00
22283;BME280;11310;51.528;21.204;2022-12-18T03:23:21;101542.34;;;-3.30;100.00
22283;BME280;11310;51.528;21.204;2022-12-18T03:25:56;101550.88;;;-3.31;100.00
22283;BME280;11310;51.528;21.204;2022-12-18T03:28:40;101550.03;;;-3.30;100.00
22283;BME280;11310;51.528;21.204;2022-12-18T03:31:12;101549.22;;;-3.29;100.00
22283;BME280;11310;51.528;21.204;2022-12-18T03:33:47;101549.06;;;-3.33;100.00
22283;BME280;11310;51.528;21.204;2022-12-18T03:36:23;101552.41;;;-3.36;100.00
22283;BME280;11310;51.528;21.204;2022-12-18T03:38:52;101548.94;;;-3.36;100.00
22283;BME280;11310;51.528;21.204;2022-12-18T03:41:27;101549.72;;;-3.39;100.00
22283;BME280;11310;51.528;21.204;2022-12-18T03:44:22;101557.31;;;-3.42;100.00
22283;BME280;11310;51.528;21.204;2022-12-18T03:46:59;101562.28;;;-3.46;100.00
22283;BME280;11310;51.528;21.204;2022-12-18T03:49:35;101569.97;;;-3.46;100.00
22283;BME280;11310;51.528;21.204;2022-12-18T03:52:09;101574.22;;;-3.47;100.00
22283;BME280;11310;51.528;21.204;2022-12-18T03:54:41;101581.06;;;-3.47;100.00
22283;BME280;11310;51.528;21.204;2022-12-18T03:57:16;101583.66;;;-3.46;100.00
22283;BME280;11310;51.528;21.204;2022-12-18T03:59:55;101589.56;;;-3.48;100.00
22283;BME280;11310;51.528;21.204;2022-12-18T04:02:31;101586.09;;;-3.50;100.00
22283;BME280;11310;51.528;21.204;2022-12-18T04:05:04;101596.28;;;-3.52;100.00
22283;BME280;11310;51.528;21.204;2022-12-18T04:07:37;101589.34;;;-3.54;100.00
22283;BME280;11310;51.528;21.204;2022-12-18T04:10:09;101597.81;;;-3.57;100.00
22283;BME280;11310;51.528;21.204;2022-12-18T04:12:42;101591.78;;;-3.57;100.00
22283;BME280;11310;51.528;21.204;2022-12-18T04:15:13;101593.50;;;-3.58;100.00
22283;BME280;11310;51.528;21.204;2022-12-18T04:17:48;101590.88;;;-3.59;100.00
22283;BME280;11310;51.528;21.204;2022-12-18T04:20:20;101595.94;;;-3.61;100.00
22283;BME280;11310;51.528;21.204;2022-12-18T04:22:50;101600.16;;;-3.63;100.00
22283;BME280;11310;51.528;21.204;2022-12-18T04:25:19;101612.97;;;-3.63;100.00
22283;BME280;11310;51.528;21.204;2022-12-18T04:28:04;101607.63;;;-3.69;100.00
22283;BME280;11310;51.528;21.204;2022-12-18T04:30:35;101620.44;;;-3.69;100.00
22283;BME280;11310;51.528;21.204;2022-12-18T04:33:08;101626.31;;;-3.71;100.00
22283;BME280;11310;51.528;21.204;2022-12-18T04:35:39;101631.38;;;-3.74;100.00
22283;BME280;11310;51.528;21.204;2022-12-18T04:38:08;101644.13;;;-3.76;100.00
22283;BME280;11310;51.528;21.204;2022-12-18T04:40:38;101652.63;;;-3.77;100.00
22283;BME280;11310;51.528;21.204;2022-12-18T04:43:15;101653.47;;;-3.76;100.00
22283;BME280;11310;51.528;21.204;2022-12-18T04:45:45;101652.63;;;-3.77;100.00
22283;BME280;11310;51.528;21.204;2022-12-18T04:48:15;101655.91;;;-3.81;100.00
22283;BME280;11310;51.528;21.204;2022-12-18T04:50:43;101672.88;;;-3.83;100.00
22283;BME280;11310;51.528;21.204;2022-12-18T04:53:12;101680.53;;;-3.84;100.00
22283;BME280;11310;51.528;21.204;2022-12-18T04:55:40;101679.66;;;-3.85;100.00
22283;BME280;11310;51.528;21.204;2022-12-18T04:58:09;101683.84;;;-3.87;100.00
22283;BME280;11310;51.528;21.204;2022-12-18T05:00:37;101687.16;;;-3.89;100.00
22283;BME280;11310;51.528;21.204;2022-12-18T05:03:07;101686.25;;;-3.91;100.00
22283;BME280;11310;51.528;21.204;2022-12-18T05:05:35;101689.56;;;-3.94;100.00
22283;BME280;11310;51.528;21.204;2022-12-18T05:08:04;101693.81;;;-3.94;100.00
22283;BME280;11310;51.528;21.204;2022-12-18T05:10:32;101685.25;;;-3.95;100.00
22283;BME280;11310;51.528;21.204;2022-12-18T05:13:04;101690.38;;;-3.95;100.00
22283;BME280;11310;51.528;21.204;2022-12-18T05:15:33;101687.81;;;-3.95;100.00
22283;BME280;11310;51.528;21.204;2022-12-18T05:18:03;101689.44;;;-3.97;100.00
22283;BME280;11310;51.528;21.204;2022-12-18T05:20:33;101700.56;;;-3.96;100.00
22283;BME280;11310;51.528;21.204;2022-12-18T05:23:01;101693.72;;;-3.96;100.00
22283;BME280;11310;51.528;21.204;2022-12-18T05:25:30;101698.06;;;-3.95;100.00
22283;BME280;11310;51.528;21.204;2022-12-18T05:27:58;101710.88;;;-3.95;100.00
22283;BME280;11310;51.528;21.204;2022-12-18T05:30:26;101717.81;;;-3.92;100.00
22283;BME280;11310;51.528;21.204;2022-12-18T05:32:55;101719.56;;;-3.91;100.00
22283;BME280;11310;51.528;21.204;2022-12-18T05:35:24;101716.22;;;-3.89;100.00
22283;BME280;11310;51.528;21.204;2022-12-18T05:37:54;101719.69;;;-3.88;100.00
22283;BME280;11310;51.528;21.204;2022-12-18T05:40:23;101729.97;;;-3.87;100.00
22283;BME280;11310;51.528;21.204;2022-12-18T05:42:51;101720.59;;;-3.86;100.00
22283;BME280;11310;51.528;21.204;2022-12-18T05:45:19;101729.06;;;-3.89;100.00
22283;BME280;11310;51.528;21.204;2022-12-18T05:47:48;101730.69;;;-3.91;100.00
22283;BME280;11310;51.528;21.204;2022-12-18T05:50:17;101738.41;;;-3.89;100.00
22283;BME280;11310;51.528;21.204;2022-12-18T05:52:45;101737.44;;;-3.93;100.00
22283;BME280;11310;51.528;21.204;2022-12-18T05:55:15;101742.41;;;-3.96;100.00
22283;BME280;11310;51.528;21.204;2022-12-18T05:57:44;101745.81;;;-3.97;100.00
22283;BME280;11310;51.528;21.204;2022-12-18T06:00:13;101747.50;;;-3.97;100.00
22283;BME280;11310;51.528;21.204;2022-12-18T06:02:46;101747.56;;;-3.96;100.00
22283;BME280;11310;51.528;21.204;2022-12-18T06:05:17;101754.44;;;-3.95;100.00
22283;BME280;11310;51.528;21.204;2022-12-18T06:07:45;101765.44;;;-3.97;100.00
22283;BME280;11310;51.528;21.204;2022-12-18T06:10:15;101762.81;;;-3.99;100.00
22283;BME280;11310;51.528;21.204;2022-12-18T06:12:44;101776.47;;;-4.00;100.00
22283;BME280;11310;51.528;21.204;2022-12-18T06:15:14;101767.75;;;-4.03;100.00
22283;BME280;11310;51.528;21.204;2022-12-18T06:17:44;101766.75;;;-4.07;100.00
22283;BME280;11310;51.528;21.204;2022-12-18T06:20:13;101770.97;;;-4.09;100.00
22283;BME280;11310;51.528;21.204;2022-12-18T06:22:41;101783.72;;;-4.10;100.00
22283;BME280;11310;51.528;21.204;2022-12-18T06:25:09;101784.53;;;-4.11;100.00
22283;BME280;11310;51.528;21.204;2022-12-18T06:27:39;101787.94;;;-4.11;100.00
22283;BME280;11310;51.528;21.204;2022-12-18T06:30:10;101783.72;;;-4.10;100.00
22283;BME280;11310;51.528;21.204;2022-12-18T06:32:40;101790.44;;;-4.12;100.00
22283;BME280;11310;51.528;21.204;2022-12-18T06:35:08;101788.53;;;-4.18;100.00
22283;BME280;11310;51.528;21.204;2022-12-18T06:37:37;101797.81;;;-4.20;100.00
22283;BME280;11310;51.528;21.204;2022-12-18T06:40:06;101801.34;;;-4.18;100.00
22283;BME280;11310;51.528;21.204;2022-12-18T06:42:34;101798.78;;;-4.18;100.00
22283;BME280;11310;51.528;21.204;2022-12-18T06:45:05;101810.84;;;-4.15;100.00
22283;BME280;11310;51.528;21.204;2022-12-18T06:47:34;101811.81;;;-4.12;100.00
22283;BME280;11310;51.528;21.204;2022-12-18T06:50:03;101816.19;;;-4.09;100.00
22283;BME280;11310;51.528;21.204;2022-12-18T06:52:32;101822.22;;;-4.09;100.00
22283;BME280;11310;51.528;21.204;2022-12-18T06:55:01;101836.81;;;-4.06;100.00
22283;BME280;11310;51.528;21.204;2022-12-18T06:57:29;101834.19;;;-4.08;100.00
22283;BME280;11310;51.528;21.204;2022-12-18T06:59:58;101843.69;;;-4.05;100.00
22283;BME280;11310;51.528;21.204;2022-12-18T07:02:27;101851.44;;;-4.04;100.00
22283;BME280;11310;51.528;21.204;2022-12-18T07:04:56;101855.81;;;-4.01;100.00
22283;BME280;11310;51.528;21.204;2022-12-18T07:07:24;101860.28;;;-3.97;100.00
22283;BME280;11310;51.528;21.204;2022-12-18T07:09:53;101860.44;;;-3.93;100.00
22283;BME280;11310;51.528;21.204;2022-12-18T07:12:21;101858.88;;;-3.89;100.00
22283;BME280;11310;51.528;21.204;2022-12-18T07:14:49;101862.47;;;-3.86;100.00
22283;BME280;11310;51.528;21.204;2022-12-18T07:17:18;101863.25;;;-3.87;100.00
22283;BME280;11310;51.528;21.204;2022-12-18T07:19:47;101867.59;;;-3.86;100.00
22283;BME280;11310;51.528;21.204;2022-12-18T07:22:16;101869.31;;;-3.85;100.00
22283;BME280;11310;51.528;21.204;2022-12-18T07:24:44;101881.31;;;-3.84;100.00
22283;BME280;11310;51.528;21.204;2022-12-18T07:27:13;101886.53;;;-3.82;100.00
22283;BME280;11310;51.528;21.204;2022-12-18T07:29:41;101895.09;;;-3.82;100.00
22283;BME280;11310;51.528;21.204;2022-12-18T07:32:09;101902.81;;;-3.80;100.00
22283;BME280;11310;51.528;21.204;2022-12-18T07:34:38;101904.59;;;-3.79;100.00
22283;BME280;11310;51.528;21.204;2022-12-18T07:37:08;101908.97;;;-3.77;100.00
22283;BME280;11310;51.528;21.204;2022-12-18T07:39:36;101911.53;;;-3.77;100.00
22283;BME280;11310;51.528;21.204;2022-12-18T07:42:05;101908.09;;;-3.77;100.00
22283;BME280;11310;51.528;21.204;2022-12-18T07:44:51;101907.34;;;-3.75;100.00
22283;BME280;11310;51.528;21.204;2022-12-18T07:47:20;101909.22;;;-3.71;100.00
22283;BME280;11310;51.528;21.204;2022-12-18T07:49:49;101921.34;;;-3.67;100.00
22283;BME280;11310;51.528;21.204;2022-12-18T07:52:19;101921.34;;;-3.67;100.00
22283;BME280;11310;51.528;21.204;2022-12-18T07:54:52;101921.41;;;-3.65;100.00
22283;BME280;11310;51.528;21.204;2022-12-18T07:57:20;101924.00;;;-3.65;100.00
22283;BME280;11310;51.528;21.204;2022-12-18T08:00:10;101931.59;;;-3.67;100.00
22283;BME280;11310;51.528;21.204;2022-12-18T08:02:39;101936.59;;;-3.70;100.00
22283;BME280;11310;51.528;21.204;2022-12-18T08:05:08;101943.47;;;-3.69;100.00
22283;BME280;11310;51.528;21.204;2022-12-18T08:07:38;101942.78;;;-3.65;100.00
22283;BME280;11310;51.528;21.204;2022-12-18T08:10:07;101948.75;;;-3.66;100.00
22283;BME280;11310;51.528;21.204;2022-12-18T08:12:36;101961.63;;;-3.64;100.00
22283;BME280;11310;51.528;21.204;2022-12-18T08:15:06;101959.91;;;-3.64;100.00
22283;BME280;11310;51.528;21.204;2022-12-18T08:17:35;101968.50;;;-3.63;100.00
22283;BME280;11310;51.528;21.204;2022-12-18T08:20:03;101960.75;;;-3.65;100.00
22283;BME280;11310;51.528;21.204;2022-12-18T08:22:33;101963.19;;;-3.68;100.00
22283;BME280;11310;51.528;21.204;2022-12-18T08:25:04;101964.19;;;-3.64;100.00
22283;BME280;11310;51.528;21.204;2022-12-18T08:27:33;101967.75;;;-3.61;100.00
22283;BME280;11310;51.528;21.204;2022-12-18T08:30:02;101973.13;;;-3.55;100.00
22283;BME280;11310;51.528;21.204;2022-12-18T08:32:32;101983.38;;;-3.55;100.00
22283;BME280;11310;51.528;21.204;2022-12-18T08:35:01;101989.41;;;-3.54;100.00
22283;BME280;11310;51.528;21.204;2022-12-18T08:37:29;101986.09;;;-3.52;100.00
22283;BME280;11310;51.528;21.204;2022-12-18T08:39:58;101992.28;;;-3.47;100.00
22283;BME280;11310;51.528;21.204;2022-12-18T08:42:28;101999.44;;;-3.40;100.00
22283;BME280;11310;51.528;21.204;2022-12-18T08:45:13;102004.56;;;-3.40;100.00
22283;BME280;11310;51.528;21.204;2022-12-18T08:47:43;102002.91;;;-3.38;100.00
22283;BME280;11310;51.528;21.204;2022-12-18T08:50:13;102008.34;;;-3.30;100.00
22283;BME280;11310;51.528;21.204;2022-12-18T08:52:41;102002.69;;;-3.23;100.00
22283;BME280;11310;51.528;21.204;2022-12-18T08:55:10;102005.53;;;-3.16;100.00
22283;BME280;11310;51.528;21.204;2022-12-18T08:57:40;102007.66;;;-3.06;100.00
22283;BME280;11310;51.528;21.204;2022-12-18T09:00:09;102004.63;;;-2.96;100.00
22283;BME280;11310;51.528;21.204;2022-12-18T09:02:40;102006.53;;;-2.92;100.00
22283;BME280;11310;51.528;21.204;2022-12-18T09:05:09;102003.38;;;-2.85;100.00
22283;BME280;11310;51.528;21.204;2022-12-18T09:07:38;102004.44;;;-2.80;100.00
22283;BME280;11310;51.528;21.204;2022-12-18T09:10:07;102010.03;;;-2.90;100.00
22283;BME280;11310;51.528;21.204;2022-12-18T09:12:35;102019.06;;;-2.99;100.00
22283;BME280;11310;51.528;21.204;2022-12-18T09:15:06;102021.56;;;-3.01;100.00
22283;BME280;11310;51.528;21.204;2022-12-18T09:17:34;102018.44;;;-2.94;100.00
22283;BME280;11310;51.528;21.204;2022-12-18T09:20:04;102015.78;;;-2.95;100.00
22283;BME280;11310;51.528;21.204;2022-12-18T09:22:32;102025.06;;;-2.99;100.00
22283;BME280;11310;51.528;21.204;2022-12-18T09:25:01;102028.69;;;-2.94;100.00
22283;BME280;11310;51.528;21.204;2022-12-18T09:27:29;102023.78;;;-2.88;100.00
22283;BME280;11310;51.528;21.204;2022-12-18T09:29:58;102026.50;;;-2.85;100.00
22283;BME280;11310;51.528;21.204;2022-12-18T09:32:28;102024.16;;;-2.79;100.00
22283;BME280;11310;51.528;21.204;2022-12-18T09:34:56;102029.59;;;-2.71;100.00
22283;BME280;11310;51.528;21.204;2022-12-18T09:37:25;102039.22;;;-2.66;100.00
22283;BME280;11310;51.528;21.204;2022-12-18T09:39:54;102040.16;;;-2.64;100.00
22283;BME280;11310;51.528;21.204;2022-12-18T09:42:23;102040.00;;;-2.68;100.00
22283;BME280;11310;51.528;21.204;2022-12-18T09:44:53;102035.03;;;-2.64;100.00
22283;BME280;11310;51.528;21.204;2022-12-18T09:47:25;102031.06;;;-2.56;100.00
22283;BME280;11310;51.528;21.204;2022-12-18T09:50:00;102035.84;;;-2.43;100.00
22283;BME280;11310;51.528;21.204;2022-12-18T09:52:33;102042.38;;;-2.51;100.00
22283;BME280;11310;51.528;21.204;2022-12-18T09:55:11;102039.88;;;-2.49;100.00
22283;BME280;11310;51.528;21.204;2022-12-18T09:57:49;102044.78;;;-2.55;100.00
22283;BME280;11310;51.528;21.204;2022-12-18T10:00:21;102044.50;;;-2.63;100.00
22283;BME280;11310;51.528;21.204;2022-12-18T10:02:51;102041.81;;;-2.66;100.00
22283;BME280;11310;51.528;21.204;2022-12-18T10:05:29;102043.78;;;-2.59;100.00
22283;BME280;11310;51.528;21.204;2022-12-18T10:08:05;102045.16;;;-2.46;100.00
22283;BME280;11310;51.528;21.204;2022-12-18T10:10:40;102049.41;;;-2.47;100.00
22283;BME280;11310;51.528;21.204;2022-12-18T10:13:15;102059.31;;;-2.56;100.00
22283;BME280;11310;51.528;21.204;2022-12-18T10:15:57;102047.06;;;-2.63;100.00
22283;BME280;11310;51.528;21.204;2022-12-18T10:18:48;102057.34;;;-2.63;100.00
22283;BME280;11310;51.528;21.204;2022-12-18T10:21:23;102060.84;;;-2.61;100.00
22283;BME280;11310;51.528;21.204;2022-12-18T10:23:58;102061.81;;;-2.57;100.00
22283;BME280;11310;51.528;21.204;2022-12-18T10:26:31;102068.84;;;-2.53;100.00
22283;BME280;11310;51.528;21.204;2022-12-18T10:29:01;102061.31;;;-2.49;100.00
22283;BME280;11310;51.528;21.204;2022-12-18T10:31:31;102068.34;;;-2.45;100.00
22283;BME280;11310;51.528;21.204;2022-12-18T10:34:00;102067.31;;;-2.48;100.00
22283;BME280;11310;51.528;21.204;2022-12-18T10:36:30;102071.59;;;-2.49;100.00
22283;BME280;11310;51.528;21.204;2022-12-18T10:39:14;102071.69;;;-2.46;100.00
22283;BME280;11310;51.528;21.204;2022-12-18T10:41:43;102070.19;;;-2.41;100.00
22283;BME280;11310;51.528;21.204;2022-12-18T10:44:17;102072.13;;;-2.35;100.00
22283;BME280;11310;51.528;21.204;2022-12-18T10:46:46;102072.31;;;-2.31;100.00
22283;BME280;11310;51.528;21.204;2022-12-18T10:49:22;102071.19;;;-2.37;100.00
22283;BME280;11310;51.528;21.204;2022-12-18T10:52:04;102068.34;;;-2.45;100.00
22283;BME280;11310;51.528;21.204;2022-12-18T10:54:34;102052.91;;;-2.45;100.00
22283;BME280;11310;51.528;21.204;2022-12-18T10:57:15;102067.31;;;-2.48;100.00
22283;BME280;11310;51.528;21.204;2022-12-18T10:59:51;102063.06;;;-2.48;100.00
22283;BME280;11310;51.528;21.204;2022-12-18T11:02:27;102081.47;;;-2.37;100.00
22283;BME280;11310;51.528;21.204;2022-12-18T11:04:56;102077.19;;;-2.37;100.00
22283;BME280;11310;51.528;21.204;2022-12-18T11:07:47;102081.88;;;-2.49;100.00
22283;BME280;11310;51.528;21.204;2022-12-18T11:10:16;102081.13;;;-2.46;100.00
22283;BME280;11310;51.528;21.204;2022-12-18T11:12:45;102074.47;;;-2.41;100.00
22283;BME280;11310;51.528;21.204;2022-12-18T11:15:16;102081.22;;;-2.43;100.00
22283;BME280;11310;51.528;21.204;2022-12-18T11:17:48;102077.53;;;-2.50;100.00
22283;BME280;11310;51.528;21.204;2022-12-18T11:20:27;102079.94;;;-2.54;100.00
22283;BME280;11310;51.528;21.204;2022-12-18T11:23:01;102069.88;;;-2.48;100.00
22283;BME280;11310;51.528;21.204;2022-12-18T11:25:31;102071.59;;;-2.49;100.00
22283;BME280;11310;51.528;21.204;2022-12-18T11:28:03;102073.41;;;-2.46;100.00
22283;BME280;11310;51.528;21.204;2022-12-18T11:30:33;102064.88;;;-2.45;100.00
22283;BME280;11310;51.528;21.204;2022-12-18T11:33:05;102068.44;;;-2.42;100.00
22283;BME280;11310;51.528;21.204;2022-12-18T11:35:42;102070.44;;;-2.35;100.00
22283;BME280;11310;51.528;21.204;2022-12-18T11:38:20;102066.22;;;-2.33;100.00
22283;BME280;11310;51.528;21.204;2022-12-18T11:40:54;102068.78;;;-2.33;100.00
22283;BME280;11310;51.528;21.204;2022-12-18T11:43:27;102068.66;;;-2.36;100.00
22283;BME280;11310;51.528;21.204;2022-12-18T11:46:02;102075.66;;;-2.32;100.00
22283;BME280;11310;51.528;21.204;2022-12-18T11:48:34;102080.81;;;-2.32;100.00
22283;BME280;11310;51.528;21.204;2022-12-18T11:51:11;102082.69;;;-2.28;100.00
22283;BME280;11310;51.528;21.204;2022-12-18T11:53:44;102079.19;;;-2.30;100.00
22283;BME280;11310;51.528;21.204;2022-12-18T11:56:26;102086.22;;;-2.26;100.00
22283;BME280;11310;51.528;21.204;2022-12-18T11:59:07;102082.13;;;-2.21;100.00
22283;BME280;11310;51.528;21.204;2022-12-18T12:01:44;102079.91;;;-2.12;100.00
22283;BME280;11310;51.528;21.204;2022-12-18T12:04:30;102090.63;;;-2.00;100.00
22283;BME280;11310;51.528;21.204;2022-12-18T12:07:14;102087.00;;;-2.05;100.00
22283;BME280;11310;51.528;21.204;2022-12-18T12:09:53;102091.91;;;-2.11;100.00
22283;BME280;11310;51.528;21.204;2022-12-18T12:12:31;102095.19;;;-2.15;100.00
22283;BME280;11310;51.528;21.204;2022-12-18T12:15:25;102100.19;;;-2.18;100.00
22283;BME280;11310;51.528;21.204;2022-12-18T12:18:00;102092.50;;;-2.18;100.00
22283;BME280;11310;51.528;21.204;2022-12-18T12:20:47;102097.69;;;-2.16;100.00
22283;BME280;11310;51.528;21.204;2022-12-18T12:23:25;102095.59;;;-2.26;100.00
22283;BME280;11310;51.528;21.204;2022-12-18T12:26:01;102104.88;;;-2.30;100.00
22283;BME280;11310;51.528;21.204;2022-12-18T12:28:58;102104.88;;;-2.30;100.00
22283;BME280;11310;51.528;21.204;2022-12-18T12:31:38;102110.50;;;-2.40;100.00
22283;BME280;11310;51.528;21.204;2022-12-18T12:34:17;102112.72;;;-2.49;100.00
22283;BME280;11310;51.528;21.204;2022-12-18T12:36:57;102111.59;;;-2.55;100.00
22283;BME280;11310;51.528;21.204;2022-12-18T12:39:32;102116.78;;;-2.54;100.00
22283;BME280;11310;51.528;21.204;2022-12-18T12:42:06;102125.06;;;-2.61;100.00
22283;BME280;11310;51.528;21.204;2022-12-18T12:44:58;102138.66;;;-2.63;100.00
22283;BME280;11310;51.528;21.204;2022-12-18T12:47:35;102138.59;;;-2.65;100.00
22283;BME280;11310;51.528;21.204;2022-12-18T12:50:13;102141.16;;;-2.65;100.00
22283;BME280;11310;51.528;21.204;2022-12-18T12:52:45;102143.03;;;-2.61;100.00
22283;BME280;11310;51.528;21.204;2022-12-18T12:55:17;102147.28;;;-2.61;100.00